createdAt,value
2018-10-03T00:00:37.941Z,4.77
2018-10-03T00:01:41.399Z,3.30
2018-10-03T00:02:44.800Z,2.67
2018-10-03T00:03:48.632Z,4.00
2018-10-03T00:04:52.039Z,4.53
2018-10-03T00:05:55.451Z,2.80
2018-10-03T00:06:58.885Z,17.80
2018-10-03T00:08:02.330Z,3.67
2018-10-03T00:09:07.893Z,3.33
2018-10-03T00:10:11.310Z,4.60
2018-10-03T00:11:14.704Z,3.00
2018-10-03T00:12:18.226Z,2.43
2018-10-03T00:13:21.658Z,4.07
2018-10-03T00:14:25.092Z,6.83
2018-10-03T00:15:28.495Z,8.40
2018-10-03T00:16:31.948Z,7.40
2018-10-03T00:17:35.412Z,4.53
2018-10-03T00:18:38.817Z,2.43
2018-10-03T00:19:42.309Z,5.63
2018-10-03T00:20:45.788Z,5.00
2018-10-03T00:21:49.207Z,2.70
2018-10-03T00:22:52.912Z,5.50
2018-10-03T00:23:56.336Z,4.20
2018-10-03T00:24:59.827Z,5.47
2018-10-03T00:26:03.243Z,6.80
2018-10-03T00:27:06.893Z,2.37
2018-10-03T00:28:10.297Z,5.47
2018-10-03T00:29:13.710Z,3.67
2018-10-03T00:30:17.126Z,3.73
2018-10-03T00:31:20.566Z,1.97
2018-10-03T00:32:24.016Z,7.83
2018-10-03T00:33:27.584Z,5.57
2018-10-03T00:34:31.022Z,11.90
2018-10-03T00:35:34.434Z,6.63
2018-10-03T00:36:37.868Z,5.90
2018-10-03T00:37:41.328Z,3.40
2018-10-03T00:38:44.788Z,3.00
2018-10-03T00:39:48.396Z,3.30
2018-10-03T00:40:51.819Z,4.33
2018-10-03T00:41:55.242Z,8.87
2018-10-03T00:42:58.654Z,7.20
2018-10-03T00:44:02.105Z,4.80
2018-10-03T00:45:06.042Z,4.33
2018-10-03T00:46:09.698Z,4.10
2018-10-03T00:47:13.113Z,4.03
2018-10-03T00:48:16.551Z,3.80
2018-10-03T00:49:20.000Z,4.80
2018-10-03T00:50:23.411Z,3.77
2018-10-03T00:51:26.843Z,4.53
2018-10-03T00:52:30.430Z,5.27
2018-10-03T00:53:33.833Z,3.10
2018-10-03T00:54:37.312Z,2.67
2018-10-03T00:55:40.771Z,2.63
2018-10-03T00:56:44.234Z,3.13
2018-10-03T00:57:47.685Z,4.63
2018-10-03T00:58:51.114Z,3.27
2018-10-03T00:59:54.587Z,2.60
2018-10-03T01:00:58.045Z,3.50
2018-10-03T01:02:01.455Z,5.63
2018-10-03T01:03:04.928Z,3.30
2018-10-03T01:04:08.341Z,2.20
2018-10-03T01:05:11.755Z,5.70
2018-10-03T01:06:15.213Z,3.30
2018-10-03T01:07:18.611Z,3.63
2018-10-03T01:08:22.021Z,3.53
2018-10-03T01:09:25.485Z,2.40
2018-10-03T01:10:28.905Z,7.80
2018-10-03T01:11:32.405Z,3.77
2018-10-03T01:12:35.876Z,2.10
2018-10-03T01:13:39.323Z,2.83
2018-10-03T01:14:42.739Z,4.10
2018-10-03T01:15:46.169Z,2.00
2018-10-03T01:16:49.595Z,3.07
2018-10-03T01:17:53.018Z,5.20
2018-10-03T01:18:56.409Z,4.00
2018-10-03T01:19:59.842Z,3.63
2018-10-03T01:21:03.297Z,3.83
2018-10-03T01:22:06.736Z,8.50
2018-10-03T01:23:10.176Z,4.70
2018-10-03T01:24:13.578Z,2.00
2018-10-03T01:25:16.999Z,8.97
2018-10-03T01:26:20.433Z,4.20
2018-10-03T01:27:23.854Z,3.10
2018-10-03T01:28:27.227Z,6.37
2018-10-03T01:29:30.675Z,2.93
2018-10-03T01:30:34.087Z,2.50
2018-10-03T01:31:37.534Z,2.10
2018-10-03T01:32:41.000Z,3.47
2018-10-03T01:33:44.432Z,2.27
2018-10-03T01:34:47.861Z,7.67
2018-10-03T01:35:51.263Z,9.80
2018-10-03T01:36:54.703Z,1.60
2018-10-03T01:37:58.998Z,3.70
2018-10-03T01:39:02.501Z,5.50
2018-10-03T01:40:05.983Z,2.53
2018-10-03T01:41:09.425Z,6.03
2018-10-03T01:42:12.831Z,3.20
2018-10-03T01:43:16.257Z,2.33
2018-10-03T01:44:19.720Z,2.97
2018-10-03T01:45:23.278Z,2.60
2018-10-03T01:46:26.694Z,3.87
2018-10-03T01:47:30.095Z,2.27
2018-10-03T01:48:33.810Z,3.23
2018-10-03T01:49:37.233Z,4.00
2018-10-03T01:50:40.634Z,3.10
2018-10-03T01:51:44.073Z,5.03
2018-10-03T01:52:47.589Z,2.47
2018-10-03T01:53:51.031Z,5.40
2018-10-03T01:54:54.488Z,2.80
2018-10-03T01:55:57.878Z,4.50
2018-10-03T01:57:01.262Z,2.40
2018-10-03T01:58:04.741Z,5.23
2018-10-03T01:59:08.150Z,5.93
2018-10-03T02:00:11.723Z,10.13
2018-10-03T02:01:15.130Z,5.27
2018-10-03T02:02:18.539Z,2.47
2018-10-03T02:03:21.965Z,4.20
2018-10-03T02:04:25.402Z,4.97
2018-10-03T02:05:28.844Z,3.10
2018-10-03T02:06:32.288Z,2.47
2018-10-03T02:07:35.764Z,5.90
2018-10-03T02:08:39.264Z,3.20
2018-10-03T02:09:42.696Z,3.57
2018-10-03T02:10:46.161Z,2.40
2018-10-03T02:11:49.613Z,1.50
2018-10-03T02:12:53.081Z,17.57
2018-10-03T02:13:56.494Z,2.70
2018-10-03T02:14:59.907Z,2.17
2018-10-03T02:16:03.356Z,3.10
2018-10-03T02:17:07.038Z,2.10
2018-10-03T02:18:10.431Z,2.33
2018-10-03T02:19:13.905Z,2.87
2018-10-03T02:20:17.318Z,1.80
2018-10-03T02:21:20.721Z,2.50
2018-10-03T02:22:24.150Z,2.43
2018-10-03T02:23:27.581Z,3.53
2018-10-03T02:24:31.006Z,3.50
2018-10-03T02:25:34.492Z,2.60
2018-10-03T02:26:37.926Z,2.00
2018-10-03T02:27:41.361Z,3.00
2018-10-03T02:28:44.801Z,1.63
2018-10-03T02:29:48.319Z,2.73
2018-10-03T02:30:51.722Z,2.17
2018-10-03T02:31:55.162Z,4.23
2018-10-03T02:32:58.598Z,2.40
2018-10-03T02:34:02.034Z,1.97
2018-10-03T02:35:05.528Z,2.90
2018-10-03T02:36:09.033Z,1.80
2018-10-03T02:37:12.493Z,2.57
2018-10-03T02:38:15.931Z,2.50
2018-10-03T02:39:19.360Z,3.23
2018-10-03T02:40:22.808Z,2.60
2018-10-03T02:41:26.280Z,2.70
2018-10-03T02:42:29.672Z,5.87
2018-10-03T02:43:33.128Z,1.70
2018-10-03T02:44:36.604Z,1.50
2018-10-03T02:45:40.064Z,2.50
2018-10-03T02:46:43.471Z,3.43
2018-10-03T02:47:46.889Z,2.30
2018-10-03T02:48:50.311Z,2.70
2018-10-03T02:49:53.773Z,3.53
2018-10-03T02:50:57.209Z,7.43
2018-10-03T02:52:00.784Z,3.20
2018-10-03T02:53:04.182Z,1.60
2018-10-03T02:54:07.661Z,1.90
2018-10-03T02:55:11.118Z,2.20
2018-10-03T02:56:14.686Z,4.33
2018-10-03T02:57:18.144Z,2.40
2018-10-03T02:58:21.575Z,7.80
2018-10-03T02:59:25.058Z,2.37
2018-10-03T03:00:28.496Z,3.93
2018-10-03T03:01:32.025Z,5.80
2018-10-03T03:02:35.535Z,2.30
2018-10-03T03:03:38.961Z,2.07
2018-10-03T03:04:42.339Z,1.80
2018-10-03T03:05:45.766Z,3.33
2018-10-03T03:06:49.217Z,2.20
2018-10-03T03:07:52.630Z,2.67
2018-10-03T03:08:56.140Z,3.63
2018-10-03T03:09:59.487Z,6.33
2018-10-03T03:11:02.896Z,1.90
2018-10-03T03:12:06.318Z,2.90
2018-10-03T03:13:09.754Z,4.13
2018-10-03T03:14:13.165Z,4.27
2018-10-03T03:15:16.606Z,1.93
2018-10-03T03:16:20.091Z,4.63
2018-10-03T03:17:23.524Z,2.60
2018-10-03T03:18:26.954Z,2.00
2018-10-03T03:19:30.389Z,1.63
2018-10-03T03:20:33.786Z,2.40
2018-10-03T03:21:37.274Z,1.83
2018-10-03T03:22:41.092Z,8.80
2018-10-03T03:23:44.529Z,2.10
2018-10-03T03:24:47.971Z,3.53
2018-10-03T03:25:51.410Z,4.20
2018-10-03T03:26:54.886Z,4.40
2018-10-03T03:27:58.327Z,4.40
2018-10-03T03:29:01.770Z,3.03
2018-10-03T03:30:05.453Z,2.20
2018-10-03T03:31:08.962Z,2.10
2018-10-03T03:32:12.394Z,2.80
2018-10-03T03:33:15.917Z,1.73
2018-10-03T03:34:19.425Z,1.47
2018-10-03T03:35:22.929Z,5.73
2018-10-03T03:36:26.369Z,3.10
2018-10-03T03:37:29.797Z,5.83
2018-10-03T03:38:33.341Z,2.10
2018-10-03T03:39:36.777Z,2.53
2018-10-03T03:40:40.244Z,1.83
2018-10-03T03:41:43.930Z,2.07
2018-10-03T03:42:47.380Z,4.57
2018-10-03T03:43:50.942Z,4.60
2018-10-03T03:44:54.334Z,5.87
2018-10-03T03:45:57.774Z,2.20
2018-10-03T03:47:01.201Z,2.80
2018-10-03T03:48:04.650Z,3.27
2018-10-03T03:49:08.053Z,1.73
2018-10-03T03:50:11.448Z,4.00
2018-10-03T03:51:14.901Z,5.70
2018-10-03T03:52:18.292Z,1.93
2018-10-03T03:53:21.757Z,3.00
2018-10-03T03:54:25.189Z,1.60
2018-10-03T03:55:28.596Z,3.80
2018-10-03T03:56:32.046Z,1.97
2018-10-03T03:57:35.451Z,2.60
2018-10-03T03:58:38.852Z,2.30
2018-10-03T03:59:42.246Z,1.40
2018-10-03T04:00:45.688Z,4.10
2018-10-03T04:01:49.101Z,2.63
2018-10-03T04:02:52.502Z,2.30
2018-10-03T04:03:55.934Z,1.57
2018-10-03T04:04:59.392Z,1.70
2018-10-03T04:06:02.819Z,3.10
2018-10-03T04:07:06.210Z,3.63
2018-10-03T04:08:09.896Z,1.33
2018-10-03T04:09:13.324Z,2.43
2018-10-03T04:10:16.750Z,1.47
2018-10-03T04:11:20.186Z,5.83
2018-10-03T04:12:23.605Z,2.33
2018-10-03T04:13:27.094Z,3.80
2018-10-03T04:14:30.554Z,1.87
2018-10-03T04:15:34.017Z,3.07
2018-10-03T04:16:37.468Z,3.63
2018-10-03T04:17:40.902Z,2.50
2018-10-03T04:18:44.330Z,4.67
2018-10-03T04:19:47.863Z,2.43
2018-10-03T04:20:51.282Z,3.20
2018-10-03T04:21:54.712Z,2.33
2018-10-03T04:22:58.124Z,2.60
2018-10-03T04:24:01.564Z,3.53
2018-10-03T04:25:05.105Z,1.77
2018-10-03T04:26:08.568Z,2.37
2018-10-03T04:27:12.155Z,2.03
2018-10-03T04:28:15.590Z,3.40
2018-10-03T04:29:19.006Z,1.40
2018-10-03T04:30:22.445Z,2.03
2018-10-03T04:31:25.886Z,1.73
2018-10-03T04:32:29.342Z,2.57
2018-10-03T04:33:32.790Z,3.00
2018-10-03T04:34:36.199Z,4.20
2018-10-03T04:35:39.712Z,1.63
2018-10-03T04:36:43.093Z,3.80
2018-10-03T04:37:46.567Z,3.50
2018-10-03T04:38:50.017Z,1.60
2018-10-03T04:39:53.438Z,1.40
2018-10-03T04:40:56.906Z,1.63
2018-10-03T04:42:00.366Z,10.47
2018-10-03T04:43:03.770Z,3.07
2018-10-03T04:44:07.196Z,2.60
2018-10-03T04:45:10.661Z,2.03
2018-10-03T04:46:14.125Z,2.20
2018-10-03T04:47:17.597Z,3.07
2018-10-03T04:48:21.014Z,1.43
2018-10-03T04:49:24.480Z,2.60
2018-10-03T04:50:27.952Z,1.73
2018-10-03T04:51:31.391Z,1.83
2018-10-03T04:52:34.845Z,2.60
2018-10-03T04:53:38.268Z,4.23
2018-10-03T04:54:41.734Z,5.53
2018-10-03T04:55:45.145Z,1.40
2018-10-03T04:56:48.592Z,2.03
2018-10-03T04:57:52.051Z,2.73
2018-10-03T04:58:55.470Z,2.50
2018-10-03T04:59:58.941Z,1.90
2018-10-03T05:01:02.353Z,5.27
2018-10-03T05:02:05.956Z,2.77
2018-10-03T05:03:09.360Z,1.73
2018-10-03T05:04:12.799Z,1.43
2018-10-03T05:05:16.241Z,2.00
2018-10-03T05:06:19.672Z,3.07
2018-10-03T05:07:23.125Z,1.60
2018-10-03T05:08:26.545Z,1.63
2018-10-03T05:09:29.994Z,1.33
2018-10-03T05:10:33.429Z,1.30
2018-10-03T05:11:36.838Z,1.50
2018-10-03T05:12:40.519Z,2.23
2018-10-03T05:13:43.968Z,2.30
2018-10-03T05:14:47.372Z,1.90
2018-10-03T05:15:51.367Z,2.00
2018-10-03T05:16:54.764Z,2.80
2018-10-03T05:17:58.227Z,2.07
2018-10-03T05:19:01.700Z,1.37
2018-10-03T05:20:05.456Z,2.03
2018-10-03T05:21:08.887Z,15.40
2018-10-03T05:22:12.292Z,1.87
2018-10-03T05:23:15.711Z,6.80
2018-10-03T05:24:19.138Z,2.00
2018-10-03T05:25:22.527Z,2.17
2018-10-03T05:26:25.967Z,1.10
2018-10-03T05:27:29.422Z,2.90
2018-10-03T05:28:32.866Z,3.00
2018-10-03T05:29:36.286Z,1.80
2018-10-03T05:30:39.671Z,1.53
2018-10-03T05:31:43.109Z,2.77
2018-10-03T05:32:47.080Z,1.90
2018-10-03T05:33:50.612Z,2.97
2018-10-03T05:34:54.043Z,1.43
2018-10-03T05:35:57.512Z,1.50
2018-10-03T05:37:00.966Z,9.40
2018-10-03T05:38:04.461Z,3.40
2018-10-03T05:39:10.817Z,1.83
2018-10-03T05:40:14.230Z,2.13
2018-10-03T05:41:17.765Z,2.03
2018-10-03T05:42:21.206Z,1.67
2018-10-03T05:43:24.619Z,3.87
2018-10-03T05:44:28.033Z,2.30
2018-10-03T05:45:31.493Z,1.83
2018-10-03T05:46:34.880Z,2.60
2018-10-03T05:47:38.452Z,2.43
2018-10-03T05:48:41.916Z,4.67
2018-10-03T05:49:45.374Z,1.23
2018-10-03T05:50:49.097Z,2.37
2018-10-03T05:51:52.530Z,3.67
2018-10-03T05:52:55.955Z,2.17
2018-10-03T05:53:59.374Z,2.33
2018-10-03T05:55:02.780Z,2.50
2018-10-03T05:56:06.189Z,2.20
2018-10-03T05:57:09.624Z,3.43
2018-10-03T05:58:13.065Z,5.10
2018-10-03T05:59:16.536Z,3.53
2018-10-03T06:00:19.996Z,2.83
2018-10-03T06:01:23.391Z,2.53
2018-10-03T06:02:26.795Z,3.13
2018-10-03T06:03:30.223Z,2.93
2018-10-03T06:04:33.666Z,5.30
2018-10-03T06:05:37.110Z,13.73
2018-10-03T06:06:40.519Z,2.90
2018-10-03T06:07:43.955Z,7.70
2018-10-03T06:08:47.347Z,3.80
2018-10-03T06:09:50.778Z,1.77
2018-10-03T06:10:54.211Z,4.37
2018-10-03T06:11:57.739Z,4.67
2018-10-03T06:13:01.159Z,5.80
2018-10-03T06:14:04.650Z,3.47
2018-10-03T06:15:08.351Z,2.37
2018-10-03T06:16:11.862Z,11.10
2018-10-03T06:17:15.277Z,13.97
2018-10-03T06:18:18.780Z,8.53
2018-10-03T06:19:22.223Z,7.80
2018-10-03T06:20:25.692Z,14.63
2018-10-03T06:21:29.093Z,22.50
2018-10-03T06:22:32.563Z,12.30
2018-10-03T06:23:36.033Z,10.53
2018-10-03T06:24:39.500Z,16.63
2018-10-03T06:25:42.970Z,12.10
2018-10-03T06:26:46.398Z,10.90
2018-10-03T06:27:49.919Z,14.80
2018-10-03T06:28:53.378Z,9.60
2018-10-03T06:29:56.846Z,15.53
2018-10-03T06:31:00.284Z,14.20
2018-10-03T06:32:03.776Z,17.60
2018-10-03T06:33:07.232Z,13.90
2018-10-03T06:34:10.664Z,16.90
2018-10-03T06:35:14.691Z,13.17
2018-10-03T06:36:18.165Z,13.60
2018-10-03T06:37:21.644Z,15.10
2018-10-03T06:38:25.044Z,19.33
2018-10-03T06:39:28.570Z,13.50
2018-10-03T06:40:32.225Z,16.27
2018-10-03T06:41:35.650Z,7.40
2018-10-03T06:42:39.517Z,15.70
2018-10-03T06:43:43.171Z,13.13
2018-10-03T06:44:46.793Z,17.43
2018-10-03T06:45:50.760Z,13.73
2018-10-03T06:46:54.212Z,10.57
2018-10-03T06:47:57.658Z,22.13
2018-10-03T06:49:01.163Z,13.80
2018-10-03T06:50:04.655Z,14.80
2018-10-03T06:51:08.478Z,13.80
2018-10-03T06:52:11.922Z,21.17
2018-10-03T06:53:15.477Z,10.13
2018-10-03T06:54:18.962Z,14.50
2018-10-03T06:55:22.437Z,10.67
2018-10-03T06:56:26.101Z,18.10
2018-10-03T06:57:29.783Z,14.27
2018-10-03T06:58:33.206Z,14.73
2018-10-03T06:59:36.726Z,21.47
2018-10-03T07:00:40.189Z,10.80
2018-10-03T07:01:43.726Z,17.43
2018-10-03T07:02:47.224Z,13.00
2018-10-03T07:03:50.711Z,15.50
2018-10-03T07:04:54.296Z,13.60
2018-10-03T07:05:57.764Z,11.60
2018-10-03T07:07:01.696Z,14.80
2018-10-03T07:08:05.220Z,14.50
2018-10-03T07:09:09.280Z,7.73
2018-10-03T07:10:12.699Z,14.17
2018-10-03T07:11:16.224Z,13.37
2018-10-03T07:12:19.679Z,15.53
2018-10-03T07:13:23.106Z,10.87
2018-10-03T07:14:26.552Z,14.53
2018-10-03T07:15:30.140Z,12.37
2018-10-03T07:16:33.576Z,19.73
2018-10-03T07:17:37.030Z,11.30
2018-10-03T07:18:40.464Z,9.80
2018-10-03T07:19:44.003Z,20.40
2018-10-03T07:20:47.767Z,20.40
2018-10-03T07:21:51.248Z,15.27
2018-10-03T07:22:55.093Z,21.67
2018-10-03T07:23:58.543Z,17.20
2018-10-03T07:25:02.041Z,18.17
2018-10-03T07:26:05.556Z,21.60
2018-10-03T07:27:08.942Z,17.80
2018-10-03T07:28:12.376Z,19.40
2018-10-03T07:29:15.976Z,22.13
2018-10-03T07:30:19.868Z,20.60
2018-10-03T07:31:23.353Z,17.07
2018-10-03T07:32:26.817Z,27.40
2018-10-03T07:33:30.467Z,20.40
2018-10-03T07:34:34.562Z,17.60
2018-10-03T07:35:38.089Z,16.37
2018-10-03T07:36:41.592Z,18.07
2018-10-03T07:37:45.044Z,19.53
2018-10-03T07:38:48.503Z,19.57
2018-10-03T07:39:51.949Z,18.37
2018-10-03T07:40:56.190Z,15.40
2018-10-03T07:41:59.841Z,17.47
2018-10-03T07:43:03.241Z,20.93
2018-10-03T07:44:07.153Z,27.83
2018-10-03T07:45:10.767Z,20.00
2018-10-03T07:46:14.264Z,18.63
2018-10-03T07:47:17.761Z,26.37
2018-10-03T07:48:21.215Z,20.30
2018-10-03T07:49:24.760Z,21.47
2018-10-03T07:50:28.188Z,24.70
2018-10-03T07:51:31.648Z,21.47
2018-10-03T07:52:35.110Z,17.03
2018-10-03T07:53:38.663Z,26.10
2018-10-03T07:54:42.142Z,21.20
2018-10-03T07:55:46.627Z,28.53
2018-10-03T07:56:50.081Z,19.37
2018-10-03T07:57:53.566Z,22.90
2018-10-03T07:58:56.979Z,24.63
2018-10-03T08:00:00.465Z,34.10
2018-10-03T08:01:03.890Z,20.40
2018-10-03T08:02:07.376Z,26.37
2018-10-03T08:03:12.592Z,26.40
2018-10-03T08:04:16.040Z,22.37
2018-10-03T08:05:19.527Z,25.67
2018-10-03T08:06:22.961Z,25.63
2018-10-03T08:07:26.518Z,21.43
2018-10-03T08:08:30.013Z,22.33
2018-10-03T08:09:33.513Z,22.00
2018-10-03T08:10:37.795Z,24.87
2018-10-03T08:11:41.318Z,28.23
2018-10-03T08:12:44.735Z,23.13
2018-10-03T08:13:48.256Z,21.67
2018-10-03T08:14:51.714Z,21.83
2018-10-03T08:15:55.376Z,24.10
2018-10-03T08:16:58.852Z,25.27
2018-10-03T08:18:02.337Z,25.53
2018-10-03T08:19:05.813Z,24.37
2018-10-03T08:20:09.503Z,24.87
2018-10-03T08:21:12.984Z,23.17
2018-10-03T08:22:16.527Z,24.93
2018-10-03T08:23:20.086Z,26.93
2018-10-03T08:24:23.535Z,26.57
2018-10-03T08:25:26.974Z,31.23
2018-10-03T08:26:30.453Z,24.13
2018-10-03T08:27:33.929Z,23.20
2018-10-03T08:28:37.402Z,33.50
2018-10-03T08:29:40.819Z,22.70
2018-10-03T08:30:44.244Z,21.63
2018-10-03T08:31:47.752Z,17.03
2018-10-03T08:32:51.393Z,27.27
2018-10-03T08:33:54.640Z,35.00
2018-10-03T08:34:58.085Z,24.83
2018-10-03T08:36:01.538Z,17.33
2018-10-03T08:37:05.078Z,28.73
2018-10-03T08:38:08.548Z,23.90
2018-10-03T08:39:13.959Z,18.60
2018-10-03T08:40:17.476Z,18.67
2018-10-03T08:41:21.074Z,26.53
2018-10-03T08:42:24.750Z,29.83
2018-10-03T08:43:28.542Z,20.33
2018-10-03T08:44:32.052Z,23.80
2018-10-03T08:45:35.588Z,22.10
2018-10-03T08:46:38.956Z,25.80
2018-10-03T08:47:42.426Z,22.90
2018-10-03T08:48:45.850Z,24.83
2018-10-03T08:49:49.435Z,20.13
2018-10-03T08:50:52.859Z,21.67
2018-10-03T08:51:56.306Z,25.43
2018-10-03T08:52:59.816Z,19.73
2018-10-03T08:54:03.354Z,18.50
2018-10-03T08:55:07.023Z,23.67
2018-10-03T08:56:10.473Z,23.00
2018-10-03T08:57:13.945Z,19.27
2018-10-03T08:58:17.586Z,25.90
2018-10-03T08:59:21.058Z,26.13
2018-10-03T09:00:24.555Z,24.50
2018-10-03T09:01:27.981Z,20.17
2018-10-03T09:02:31.401Z,20.70
2018-10-03T09:03:34.853Z,19.73
2018-10-03T09:04:38.255Z,19.40
2018-10-03T09:05:41.685Z,19.93
2018-10-03T09:06:45.255Z,22.30
2018-10-03T09:07:48.676Z,19.53
2018-10-03T09:08:52.168Z,20.60
2018-10-03T09:09:56.339Z,18.50
2018-10-03T09:10:59.821Z,20.43
2018-10-03T09:12:03.263Z,19.20
2018-10-03T09:13:06.684Z,25.20
2018-10-03T09:14:10.166Z,20.07
2018-10-03T09:15:13.661Z,19.50
2018-10-03T09:16:17.111Z,24.90
2018-10-03T09:17:20.558Z,22.60
2018-10-03T09:18:24.575Z,13.00
2018-10-03T09:19:28.045Z,20.50
2018-10-03T09:20:31.474Z,22.90
2018-10-03T09:21:34.904Z,23.73
2018-10-03T09:22:38.325Z,18.87
2018-10-03T09:23:41.767Z,18.57
2018-10-03T09:24:45.240Z,22.17
2018-10-03T09:25:48.696Z,26.10
2018-10-03T09:26:52.276Z,24.70
2018-10-03T09:27:55.756Z,29.97
2018-10-03T09:28:59.329Z,23.43
2018-10-03T09:30:02.798Z,22.13
2018-10-03T09:31:06.261Z,18.40
2018-10-03T09:32:09.737Z,23.40
2018-10-03T09:33:13.162Z,17.93
2018-10-03T09:34:16.652Z,25.93
2018-10-03T09:35:20.556Z,22.40
2018-10-03T09:36:23.974Z,19.50
2018-10-03T09:37:27.410Z,17.67
2018-10-03T09:38:30.885Z,18.43
2018-10-03T09:39:34.353Z,19.07
2018-10-03T09:40:37.818Z,12.30
2018-10-03T09:41:41.603Z,20.37
2018-10-03T09:42:45.070Z,19.13
2018-10-03T09:43:48.582Z,14.87
2018-10-03T09:44:52.049Z,21.13
2018-10-03T09:45:55.527Z,17.53
2018-10-03T09:46:59.001Z,21.77
2018-10-03T09:48:02.519Z,21.17
2018-10-03T09:49:06.197Z,14.97
2018-10-03T09:50:10.278Z,12.40
2018-10-03T09:51:13.714Z,15.30
2018-10-03T09:52:17.231Z,23.13
2018-10-03T09:53:20.695Z,19.37
2018-10-03T09:54:24.398Z,23.93
2018-10-03T09:55:27.834Z,18.90
2018-10-03T09:56:33.003Z,17.70
2018-10-03T09:57:36.500Z,16.37
2018-10-03T09:58:39.943Z,16.07
2018-10-03T09:59:43.409Z,20.07
2018-10-03T10:00:52.296Z,20.60
2018-10-03T10:01:56.834Z,19.70
2018-10-03T10:03:00.462Z,13.87
2018-10-03T10:04:05.112Z,15.60
2018-10-03T10:05:08.694Z,15.97
2018-10-03T10:06:12.593Z,28.00
2018-10-03T10:07:16.682Z,21.43
2018-10-03T10:08:20.402Z,16.17
2018-10-03T10:09:24.729Z,18.90
2018-10-03T10:10:28.376Z,25.83
2018-10-03T10:11:32.214Z,23.50
2018-10-03T10:12:35.555Z,14.20
2018-10-03T10:13:39.426Z,20.83
2018-10-03T10:14:43.567Z,26.20
2018-10-03T10:15:47.649Z,19.83
2018-10-03T10:16:53.396Z,26.93
2018-10-03T10:17:59.288Z,19.43
2018-10-03T10:19:04.859Z,22.97
2018-10-03T10:20:08.357Z,16.17
2018-10-03T10:21:14.233Z,22.30
2018-10-03T10:22:19.068Z,13.90
2018-10-03T10:23:25.512Z,23.57
2018-10-03T10:24:29.315Z,17.50
2018-10-03T10:25:32.830Z,17.10
2018-10-03T10:26:36.458Z,15.47
2018-10-03T10:27:39.918Z,20.27
2018-10-03T10:28:44.278Z,14.23
2018-10-03T10:29:51.278Z,19.30
2018-10-03T10:31:03.563Z,15.37
2018-10-03T10:32:13.804Z,16.97
2018-10-03T10:33:19.054Z,18.07
2018-10-03T10:34:29.207Z,14.70
2018-10-03T10:35:32.993Z,16.03
2018-10-03T10:36:36.443Z,15.77
2018-10-03T10:37:40.691Z,16.00
2018-10-03T10:38:44.204Z,13.37
2018-10-03T10:39:49.485Z,17.37
2018-10-03T10:40:53.285Z,12.50
2018-10-03T10:41:57.161Z,16.70
2018-10-03T10:43:01.794Z,19.60
2018-10-03T10:44:05.545Z,15.10
2018-10-03T10:45:08.999Z,15.47
2018-10-03T10:46:12.588Z,21.13
2018-10-03T10:47:16.542Z,19.43
2018-10-03T10:48:20.145Z,16.57
2018-10-03T10:49:23.835Z,19.47
2018-10-03T10:50:28.394Z,17.10
2018-10-03T10:51:32.163Z,16.73
2018-10-03T10:52:35.845Z,21.30
2018-10-03T10:53:40.213Z,14.40
2018-10-03T10:54:44.155Z,19.37
2018-10-03T10:55:47.758Z,18.67
2018-10-03T10:56:51.207Z,16.57
2018-10-03T10:57:54.684Z,13.73
2018-10-03T10:58:58.358Z,13.23
2018-10-03T11:00:01.968Z,12.90
2018-10-03T11:01:05.434Z,14.37
2018-10-03T11:02:09.154Z,12.80
2018-10-03T11:03:12.583Z,20.53
2018-10-03T11:04:16.368Z,17.70
2018-10-03T11:05:20.281Z,16.43
2018-10-03T11:06:23.920Z,16.17
2018-10-03T11:07:27.310Z,14.47
2018-10-03T11:08:32.120Z,15.90
2018-10-03T11:09:35.793Z,17.63
2018-10-03T11:10:39.753Z,10.47
2018-10-03T11:11:43.320Z,12.40
2018-10-03T11:12:46.976Z,16.53
2018-10-03T11:13:50.423Z,14.63
2018-10-03T11:14:53.852Z,13.50
2018-10-03T11:15:57.320Z,13.00
2018-10-03T11:17:01.043Z,12.70
2018-10-03T11:18:04.922Z,15.87
2018-10-03T11:19:08.975Z,10.30
2018-10-03T11:20:12.521Z,14.63
2018-10-03T11:21:16.313Z,15.57
2018-10-03T11:22:20.058Z,13.23
2018-10-03T11:23:23.627Z,14.13
2018-10-03T11:24:27.384Z,12.97
2018-10-03T11:25:30.949Z,15.70
2018-10-03T11:26:34.868Z,19.20
2018-10-03T11:27:38.329Z,7.43
2018-10-03T11:28:42.239Z,17.87
2018-10-03T11:29:45.773Z,16.33
2018-10-03T11:30:49.582Z,11.17
2018-10-03T11:31:52.987Z,10.90
2018-10-03T11:32:56.446Z,15.57
2018-10-03T11:33:59.893Z,21.40
2018-10-03T11:35:03.917Z,16.17
2018-10-03T11:36:07.428Z,20.80
2018-10-03T11:37:10.882Z,15.97
2018-10-03T11:38:14.346Z,10.93
2018-10-03T11:39:17.861Z,23.13
2018-10-03T11:40:21.466Z,12.97
2018-10-03T11:41:24.918Z,9.50
2018-10-03T11:42:28.344Z,10.83
2018-10-03T11:43:31.965Z,14.43
2018-10-03T11:44:35.576Z,12.60
2018-10-03T11:45:39.042Z,23.13
2018-10-03T11:46:42.475Z,19.67
2018-10-03T11:47:45.947Z,18.53
2018-10-03T11:48:49.419Z,15.87
2018-10-03T11:49:52.909Z,12.90
2018-10-03T11:50:56.409Z,44.60
2018-10-03T11:51:59.899Z,37.23
2018-10-03T11:53:03.316Z,28.83
2018-10-03T11:54:06.917Z,16.27
2018-10-03T11:55:10.720Z,16.53
2018-10-03T11:56:14.284Z,19.60
2018-10-03T11:57:17.724Z,7.87
2018-10-03T11:58:21.448Z,19.20
2018-10-03T11:59:24.973Z,17.17
2018-10-03T12:00:29.652Z,16.67
2018-10-03T12:01:33.221Z,16.87
2018-10-03T12:02:36.699Z,13.57
2018-10-03T12:03:40.105Z,22.63
2018-10-03T12:04:43.718Z,15.30
2018-10-03T12:05:47.157Z,15.00
2018-10-03T12:06:51.389Z,20.03
2018-10-03T12:07:54.882Z,20.60
2018-10-03T12:08:58.375Z,13.60
2018-10-03T12:10:02.020Z,15.30
2018-10-03T12:11:05.536Z,14.37
2018-10-03T12:12:09.010Z,10.73
2018-10-03T12:13:12.469Z,33.17
2018-10-03T12:14:15.905Z,15.90
2018-10-03T12:15:19.485Z,13.57
2018-10-03T12:16:22.973Z,11.07
2018-10-03T12:17:26.414Z,14.00
2018-10-03T12:18:30.019Z,8.90
2018-10-03T12:19:33.516Z,12.47
2018-10-03T12:20:38.729Z,15.70
2018-10-03T12:21:42.221Z,8.27
2018-10-03T12:22:45.677Z,16.23
2018-10-03T12:23:49.605Z,12.47
2018-10-03T12:24:53.295Z,14.93
2018-10-03T12:25:56.789Z,13.60
2018-10-03T12:27:00.217Z,11.47
2018-10-03T12:28:03.626Z,8.03
2018-10-03T12:29:07.131Z,17.40
2018-10-03T12:30:10.806Z,13.57
2018-10-03T12:31:14.447Z,12.30
2018-10-03T12:32:18.663Z,7.53
2018-10-03T12:33:28.011Z,11.80
2018-10-03T12:34:36.382Z,14.33
2018-10-03T12:35:40.517Z,8.17
2018-10-03T12:36:44.087Z,13.17
2018-10-03T12:37:49.076Z,11.70
2018-10-03T12:39:01.230Z,8.00
2018-10-03T12:40:08.201Z,11.13
2018-10-03T12:41:12.031Z,8.57
2018-10-03T12:42:18.581Z,12.33
2018-10-03T12:43:27.466Z,9.43
2018-10-03T12:44:30.922Z,10.13
2018-10-03T12:45:34.331Z,13.43
2018-10-03T12:46:38.238Z,13.80
2018-10-03T12:47:41.774Z,8.90
2018-10-03T12:48:45.258Z,8.27
2018-10-03T12:49:52.328Z,10.43
2018-10-03T12:50:55.871Z,7.53
2018-10-03T12:51:59.849Z,9.37
2018-10-03T12:53:03.423Z,12.83
2018-10-03T12:54:07.181Z,10.83
2018-10-03T12:55:10.983Z,13.40
2018-10-03T12:56:14.628Z,15.27
2018-10-03T12:57:18.340Z,9.20
2018-10-03T12:58:21.903Z,12.97
2018-10-03T12:59:25.531Z,10.30
2018-10-03T13:00:33.251Z,10.90
2018-10-03T13:01:36.666Z,15.90
2018-10-03T13:02:40.294Z,13.80
2018-10-03T13:03:44.198Z,21.70
2018-10-03T13:04:47.661Z,23.17
2018-10-03T13:05:51.228Z,30.37
2018-10-03T13:06:54.680Z,21.00
2018-10-03T13:07:58.600Z,25.53
2018-10-03T13:09:02.044Z,26.87
2018-10-03T13:10:05.585Z,34.03
2018-10-03T13:11:09.120Z,24.63
2018-10-03T13:12:12.610Z,26.67
2018-10-03T13:13:16.129Z,42.57
2018-10-03T13:14:19.536Z,34.83
2018-10-03T13:15:23.016Z,37.33
2018-10-03T13:16:26.493Z,43.43
2018-10-03T13:17:29.936Z,26.73
2018-10-03T13:18:33.432Z,38.97
2018-10-03T13:19:36.870Z,34.57
2018-10-03T13:20:40.343Z,34.70
2018-10-03T13:21:43.824Z,39.37
2018-10-03T13:22:47.278Z,37.37
2018-10-03T13:23:50.769Z,44.70
2018-10-03T13:24:54.188Z,23.80
2018-10-03T13:25:57.610Z,38.90
2018-10-03T13:27:01.050Z,51.73
2018-10-03T13:28:04.512Z,35.70
2018-10-03T13:29:07.978Z,32.33
2018-10-03T13:30:11.414Z,33.13
2018-10-03T13:31:14.874Z,27.33
2018-10-03T13:32:18.481Z,43.57
2018-10-03T13:33:22.036Z,45.23
2018-10-03T13:34:25.475Z,51.53
2018-10-03T13:35:28.940Z,39.40
2018-10-03T13:36:32.434Z,36.87
2018-10-03T13:37:35.843Z,35.83
2018-10-03T13:38:39.290Z,41.93
2018-10-03T13:39:42.723Z,40.17
2018-10-03T13:40:46.429Z,39.27
2018-10-03T13:41:50.050Z,37.80
2018-10-03T13:42:53.561Z,35.67
2018-10-03T13:43:57.180Z,36.60
2018-10-03T13:45:00.619Z,24.30
2018-10-03T13:46:04.275Z,32.67
2018-10-03T13:47:07.684Z,28.53
2018-10-03T13:48:11.259Z,36.40
2018-10-03T13:49:15.107Z,31.70
2018-10-03T13:50:18.921Z,28.73
2018-10-03T13:51:22.379Z,37.27
2018-10-03T13:52:25.818Z,26.67